createdAt,value
2022-12-13T00:01:58.339Z,0.42
2022-12-13T00:04:26.693Z,0.44
2022-12-13T00:06:54.445Z,0.44
2022-12-13T00:09:22.415Z,0.35
2022-12-13T00:11:50.984Z,0.51
2022-12-13T00:14:18.543Z,0.05
2022-12-13T00:16:49.780Z,0.52
2022-12-13T00:19:18.534Z,0.56
2022-12-13T00:21:46.231Z,0.11
2022-12-13T00:24:13.950Z,0.59
2022-12-13T00:26:42.146Z,0.56
2022-12-13T00:29:11.639Z,0.57
2022-12-13T00:34:27.371Z,0.50
2022-12-13T00:36:55.413Z,0.60
2022-12-13T00:39:22.920Z,0.49
2022-12-13T00:41:51.069Z,0.64
2022-12-13T00:44:20.090Z,0.58
2022-12-13T00:46:47.821Z,0.57
2022-12-13T00:49:15.462Z,0.59
2022-12-13T00:51:43.515Z,-0.01
2022-12-13T00:54:11.619Z,0.61
2022-12-13T00:56:39.243Z,0.64
2022-12-13T00:59:07.059Z,0.64
2022-12-13T01:01:36.793Z,0.70
2022-12-13T01:04:06.569Z,0.69
2022-12-13T01:06:42.502Z,0.68
2022-12-13T01:09:22.073Z,0.62
2022-12-13T01:11:49.978Z,-0.11
2022-12-13T01:14:18.682Z,0.18
2022-12-13T01:16:46.529Z,0.65
2022-12-13T01:19:13.995Z,0.62
2022-12-13T01:21:41.234Z,0.68
2022-12-13T01:24:09.269Z,0.24
2022-12-13T01:26:36.556Z,0.73
2022-12-13T01:29:05.835Z,0.72
2022-12-13T01:31:34.028Z,0.76
2022-12-13T01:34:10.785Z,0.75
2022-12-13T01:36:39.588Z,0.73
2022-12-13T01:39:14.915Z,0.54
2022-12-13T01:41:45.246Z,0.79
2022-12-13T01:44:49.718Z,0.75
2022-12-13T01:47:25.134Z,0.79
2022-12-13T01:49:56.164Z,0.67
2022-12-13T01:52:31.076Z,0.73
2022-12-13T01:55:03.746Z,0.65
2022-12-13T01:57:34.802Z,0.84
2022-12-13T02:00:03.494Z,0.19
2022-12-13T02:02:34.920Z,0.54
2022-12-13T02:05:28.807Z,0.75
2022-12-13T02:07:58.714Z,0.47
2022-12-13T02:10:27.657Z,0.90
2022-12-13T02:12:55.832Z,0.84
2022-12-13T02:15:23.512Z,0.85
2022-12-13T02:18:09.579Z,0.85
2022-12-13T02:20:50.816Z,0.85
2022-12-13T02:23:39.819Z,0.82
2022-12-13T02:26:28.432Z,0.83
2022-12-13T02:29:10.908Z,0.88
2022-12-13T02:32:07.449Z,0.72
2022-12-13T02:34:45.656Z,0.90
2022-12-13T02:37:49.773Z,0.84
2022-12-13T02:40:31.853Z,0.77
2022-12-13T02:43:05.278Z,0.76
2022-12-13T02:45:48.120Z,0.68
2022-12-13T02:48:20.570Z,0.69
2022-12-13T02:50:51.308Z,0.69
2022-12-13T02:53:21.817Z,0.71
2022-12-13T02:55:49.722Z,0.70
2022-12-13T02:58:23.387Z,0.66
2022-12-13T03:01:29.164Z,0.72
2022-12-13T03:04:06.324Z,0.68
2022-12-13T03:07:01.351Z,0.64
2022-12-13T03:09:44.294Z,0.58
2022-12-13T03:12:39.468Z,0.61
2022-12-13T03:15:25.843Z,0.63
2022-12-13T03:17:56.419Z,0.59
2022-12-13T03:20:28.202Z,0.61
2022-12-13T03:22:57.031Z,-0.25
2022-12-13T03:25:32.221Z,0.61
2022-12-13T03:28:02.098Z,0.17
2022-12-13T03:30:32.419Z,0.60
2022-12-13T03:33:00.756Z,0.61
2022-12-13T03:35:34.185Z,0.57
2022-12-13T03:38:03.116Z,0.54
2022-12-13T03:40:30.959Z,0.56
2022-12-13T03:42:58.334Z,0.49
2022-12-13T03:45:26.029Z,0.56
2022-12-13T03:47:53.625Z,0.51
2022-12-13T03:50:26.643Z,0.53
2022-12-13T03:53:02.188Z,0.52
2022-12-13T03:55:30.019Z,0.47
2022-12-13T03:57:58.578Z,0.56
2022-12-13T04:00:29.034Z,0.50
2022-12-13T04:02:56.837Z,0.56
2022-12-13T04:05:24.207Z,0.53
2022-12-13T04:07:52.117Z,0.53
2022-12-13T04:10:28.164Z,0.44
2022-12-13T04:13:14.253Z,0.59
2022-12-13T04:15:49.118Z,0.56
2022-12-13T04:18:18.660Z,0.53
2022-12-13T04:20:46.820Z,0.52
2022-12-13T04:23:15.330Z,0.59
2022-12-13T04:25:44.109Z,0.65
2022-12-13T04:28:11.972Z,0.67
2022-12-13T04:30:53.136Z,0.73
2022-12-13T04:33:25.196Z,0.70
2022-12-13T04:35:52.985Z,0.72
2022-12-13T04:38:20.769Z,0.74
2022-12-13T04:40:48.349Z,0.67
2022-12-13T04:43:16.240Z,0.77
2022-12-13T04:45:43.736Z,0.75
2022-12-13T04:48:11.096Z,-0.10
2022-12-13T04:50:38.781Z,0.76
2022-12-13T04:53:06.272Z,0.76
2022-12-13T04:55:33.881Z,0.25
2022-12-13T04:58:02.467Z,0.66
2022-12-13T05:00:29.838Z,0.75
2022-12-13T05:02:57.554Z,0.77
2022-12-13T05:05:25.351Z,0.78
2022-12-13T05:07:53.022Z,0.69
2022-12-13T05:10:34.168Z,0.82
2022-12-13T05:13:06.144Z,0.87
2022-12-13T05:15:34.914Z,0.82
2022-12-13T05:18:09.996Z,0.84
2022-12-13T05:20:40.010Z,0.88
2022-12-13T05:23:07.773Z,0.88
2022-12-13T05:25:37.343Z,0.90
2022-12-13T05:28:09.141Z,0.46
2022-12-13T05:30:58.345Z,1.01
2022-12-13T05:33:26.776Z,0.98
2022-12-13T05:35:59.400Z,1.02
2022-12-13T05:38:29.941Z,1.06
2022-12-13T05:40:58.270Z,0.56
2022-12-13T05:43:42.447Z,1.03
2022-12-13T05:46:12.159Z,0.71
2022-12-13T05:48:40.443Z,1.05
2022-12-13T05:51:11.198Z,1.02
2022-12-13T05:53:43.447Z,0.51
2022-12-13T05:56:12.028Z,1.08
2022-12-13T05:58:40.827Z,1.11
2022-12-13T06:01:14.866Z,0.63
2022-12-13T06:03:43.852Z,1.08
2022-12-13T06:06:12.805Z,1.08
2022-12-13T06:08:40.940Z,0.99
2022-12-13T06:11:10.784Z,1.07
2022-12-13T06:13:42.813Z,1.09
2022-12-13T06:16:22.532Z,0.65
2022-12-13T06:19:03.170Z,1.14
2022-12-13T06:21:41.472Z,1.13
2022-12-13T06:24:17.523Z,0.90
2022-12-13T06:26:45.820Z,1.18
2022-12-13T06:29:23.320Z,1.14
2022-12-13T06:32:01.819Z,1.17
2022-12-13T06:34:36.339Z,1.16
2022-12-13T06:37:05.988Z,0.75
2022-12-13T06:39:34.389Z,0.25
2022-12-13T06:42:03.628Z,1.14
2022-12-13T06:44:31.379Z,1.20
2022-12-13T06:47:11.641Z,1.20
2022-12-13T06:49:43.054Z,1.21
2022-12-13T06:52:13.161Z,1.25
2022-12-13T06:54:41.031Z,1.25
2022-12-13T06:57:08.928Z,1.27
2022-12-13T06:59:36.770Z,1.06
2022-12-13T07:02:05.203Z,0.96
2022-12-13T07:04:33.212Z,1.35
2022-12-13T07:07:01.845Z,1.29
2022-12-13T07:09:31.068Z,1.43
2022-12-13T07:11:59.509Z,1.47
2022-12-13T07:14:27.451Z,1.38
2022-12-13T07:17:02.857Z,1.29
2022-12-13T07:19:35.317Z,0.95
2022-12-13T07:22:07.993Z,0.91
2022-12-13T07:24:36.703Z,1.25
2022-12-13T07:27:05.051Z,1.22
2022-12-13T07:29:32.401Z,1.26
2022-12-13T07:32:01.521Z,1.29
2022-12-13T07:34:30.714Z,0.85
2022-12-13T07:36:58.188Z,1.20
2022-12-13T07:39:26.540Z,1.20
2022-12-13T07:41:56.249Z,1.19
2022-12-13T07:44:27.289Z,0.35
2022-12-13T07:46:55.219Z,1.17
2022-12-13T07:49:23.022Z,1.14
2022-12-13T07:51:50.666Z,1.13
2022-12-13T07:54:18.281Z,0.68
2022-12-13T07:56:46.127Z,1.12
2022-12-13T07:59:14.057Z,1.17
2022-12-13T08:01:41.686Z,1.13
2022-12-13T08:04:10.158Z,1.14
2022-12-13T08:06:38.623Z,1.09
2022-12-13T08:09:06.597Z,1.10
2022-12-13T08:11:35.007Z,0.72
2022-12-13T08:14:03.843Z,1.16
2022-12-13T08:16:31.940Z,1.14
2022-12-13T08:19:01.045Z,1.06
2022-12-13T08:21:54.043Z,1.08
2022-12-13T08:24:24.294Z,1.13
2022-12-13T08:26:52.262Z,0.73
2022-12-13T08:29:22.805Z,1.15
2022-12-13T08:32:04.487Z,1.14
2022-12-13T08:34:32.020Z,1.16
2022-12-13T08:37:02.111Z,1.14
2022-12-13T08:39:36.930Z,1.16
2022-12-13T08:42:16.040Z,1.19
2022-12-13T08:44:46.899Z,1.24
2022-12-13T08:47:24.604Z,1.28
2022-12-13T08:50:01.380Z,1.39
2022-12-13T08:52:39.041Z,1.40
2022-12-13T08:55:13.084Z,1.45
2022-12-13T08:57:42.151Z,1.52
2022-12-13T09:00:13.087Z,1.52
2022-12-13T09:02:40.870Z,1.11
2022-12-13T09:05:11.035Z,1.30
2022-12-13T09:07:43.252Z,1.14
2022-12-13T09:10:26.466Z,0.92
2022-12-13T09:13:01.884Z,1.43
2022-12-13T09:15:33.718Z,1.04
2022-12-13T09:18:05.026Z,1.48
2022-12-13T09:20:40.915Z,1.48
2022-12-13T09:23:13.953Z,1.46
2022-12-13T09:26:05.306Z,1.41
2022-12-13T09:28:37.122Z,1.07
2022-12-13T09:31:12.812Z,1.41
2022-12-13T09:33:41.717Z,1.33
2022-12-13T09:36:12.730Z,1.36
2022-12-13T09:38:40.472Z,1.47
2022-12-13T09:41:28.801Z,1.16
2022-12-13T09:44:05.028Z,1.42
2022-12-13T09:46:45.151Z,1.30
2022-12-13T09:49:38.654Z,1.11
2022-12-13T09:52:10.970Z,1.46
2022-12-13T09:54:49.073Z,1.58
2022-12-13T09:57:33.828Z,1.66
2022-12-13T10:00:07.988Z,1.61
2022-12-13T10:02:54.192Z,1.51
2022-12-13T10:05:33.806Z,1.47
2022-12-13T10:08:37.522Z,1.44
2022-12-13T10:11:05.923Z,1.53
2022-12-13T10:14:14.629Z,1.47
2022-12-13T10:16:54.912Z,1.36
2022-12-13T10:19:30.131Z,1.40
2022-12-13T10:22:02.081Z,1.38
2022-12-13T10:24:47.232Z,0.77
2022-12-13T10:27:48.587Z,1.40
2022-12-13T10:30:28.437Z,1.36
2022-12-13T10:32:57.605Z,1.32
2022-12-13T10:35:30.549Z,1.28
2022-12-13T10:38:01.815Z,0.81
2022-12-13T10:40:37.918Z,1.16
2022-12-13T10:43:19.119Z,1.15
2022-12-13T10:45:55.955Z,1.10
2022-12-13T10:48:38.598Z,1.11
2022-12-13T10:51:10.323Z,1.10
2022-12-13T10:53:47.811Z,1.06
2022-12-13T10:56:23.424Z,0.92
2022-12-13T10:59:16.866Z,0.47
2022-12-13T11:01:45.063Z,0.92
2022-12-13T11:04:27.776Z,0.81
2022-12-13T11:06:57.947Z,0.87
2022-12-13T11:09:39.158Z,0.91
2022-12-13T11:12:16.767Z,0.85
2022-12-13T11:15:16.872Z,0.81
2022-12-13T11:18:02.764Z,0.83
2022-12-13T11:20:57.481Z,0.77
2022-12-13T11:23:30.444Z,0.77
2022-12-13T11:26:08.888Z,0.79
2022-12-13T11:28:42.601Z,0.78
2022-12-13T11:31:16.094Z,0.75
2022-12-13T11:33:49.554Z,0.70
2022-12-13T11:36:39.095Z,-0.25
2022-12-13T11:39:21.595Z,0.63
2022-12-13T11:42:08.749Z,0.56
2022-12-13T11:44:56.275Z,0.60
2022-12-13T11:47:30.797Z,0.09
2022-12-13T11:49:58.794Z,0.55
2022-12-13T11:52:31.279Z,0.62
2022-12-13T11:55:36.793Z,0.53
2022-12-13T12:01:22.200Z,0.46
2022-12-13T12:03:52.261Z,0.47
2022-12-13T12:06:26.865Z,0.41
2022-12-13T12:09:00.052Z,0.45
2022-12-13T12:11:46.671Z,0.48
2022-12-13T12:14:17.141Z,0.49
2022-12-13T12:16:59.022Z,0.47
2022-12-13T12:19:34.898Z,0.44
2022-12-13T12:22:13.602Z,0.49
2022-12-13T12:25:00.467Z,0.40
2022-12-13T12:27:50.147Z,0.42
2022-12-13T12:30:22.819Z,0.44
2022-12-13T12:33:03.092Z,0.49
2022-12-13T12:35:55.135Z,0.46
2022-12-13T12:38:37.887Z,0.42
2022-12-13T12:41:45.329Z,0.35
2022-12-13T12:44:43.914Z,0.24
2022-12-13T12:50:17.662Z,0.18
2022-12-13T12:53:04.290Z,0.16
2022-12-13T12:55:58.228Z,-0.71
2022-12-13T12:59:02.415Z,0.07
2022-12-13T13:01:52.274Z,0.01
2022-12-13T13:04:26.238Z,-0.37
2022-12-13T13:07:04.561Z,0.02
2022-12-13T13:09:54.620Z,0.03
2022-12-13T13:12:30.017Z,0.00
2022-12-13T13:14:58.585Z,0.02
2022-12-13T13:17:26.515Z,0.02
2022-12-13T13:20:18.780Z,-0.06
2022-12-13T13:22:58.552Z,0.03
2022-12-13T13:25:53.953Z,0.02
2022-12-13T13:28:23.857Z,0.01
2022-12-13T13:31:09.351Z,-0.35
2022-12-13T13:33:51.424Z,0.05
2022-12-13T13:36:41.771Z,0.02
2022-12-13T13:39:32.679Z,0.03
2022-12-13T13:42:17.075Z,0.08
2022-12-13T13:44:51.767Z,0.06
2022-12-13T13:47:25.011Z,0.07
2022-12-13T13:50:22.997Z,0.05
2022-12-13T13:53:12.038Z,0.04
2022-12-13T13:56:06.612Z,0.04
2022-12-13T13:58:49.621Z,0.07
2022-12-13T14:01:20.729Z,0.03
2022-12-13T14:04:07.215Z,-0.02
2022-12-13T14:06:47.149Z,0.01
2022-12-13T14:09:59.423Z,-0.05
2022-12-13T14:12:48.460Z,-0.02
2022-12-13T14:15:33.887Z,0.04
2022-12-13T14:18:41.873Z,0.11
2022-12-13T14:21:42.094Z,0.35
2022-12-13T14:24:40.530Z,0.51
2022-12-13T14:27:17.955Z,0.55
2022-12-13T14:29:58.077Z,0.10
2022-12-13T14:32:29.472Z,0.44
2022-12-13T14:34:58.072Z,0.57
2022-12-13T14:37:28.051Z,0.81
2022-12-13T14:39:55.511Z,0.90
2022-12-13T14:42:30.627Z,0.95
2022-12-13T14:45:26.629Z,0.89
2022-12-13T14:47:55.357Z,0.85
2022-12-13T14:50:25.902Z,0.37
2022-12-13T14:52:55.037Z,0.68
2022-12-13T14:55:26.798Z,0.63
2022-12-13T14:57:56.389Z,0.51
2022-12-13T15:00:33.510Z,0.60
2022-12-13T15:03:03.464Z,0.15
2022-12-13T15:05:47.038Z,0.80
2022-12-13T15:08:19.130Z,0.88
2022-12-13T15:10:50.006Z,0.94
2022-12-13T15:13:47.114Z,0.85
2022-12-13T15:16:26.812Z,0.76
2022-12-13T15:19:29.944Z,0.79
2022-12-13T15:22:07.974Z,0.67
2022-12-13T15:24:42.171Z,0.53
2022-12-13T15:27:16.508Z,0.18
2022-12-13T15:29:47.435Z,0.26
2022-12-13T15:32:19.797Z,0.42
2022-12-13T15:34:47.786Z,0.75
2022-12-13T15:37:30.536Z,0.70
2022-12-13T15:40:01.796Z,0.57
2022-12-13T15:42:39.375Z,0.55
2022-12-13T15:45:19.255Z,0.57
2022-12-13T15:47:48.283Z,0.06
2022-12-13T15:50:38.496Z,0.52
2022-12-13T15:53:25.500Z,0.38
2022-12-13T15:55:53.412Z,0.54
2022-12-13T15:58:33.078Z,0.54
2022-12-13T16:01:05.919Z,0.62
2022-12-13T16:03:47.682Z,0.63
2022-12-13T16:06:22.314Z,0.62
2022-12-13T16:08:57.235Z,-0.11
2022-12-13T16:11:34.935Z,0.44
2022-12-13T16:14:37.531Z,0.48
2022-12-13T16:17:25.188Z,0.41
2022-12-13T16:19:59.658Z,0.38
2022-12-13T16:22:29.985Z,0.37
2022-12-13T16:24:57.571Z,0.33
2022-12-13T16:27:25.559Z,0.34
2022-12-13T16:29:53.147Z,0.25
2022-12-13T16:32:21.048Z,0.27
2022-12-13T16:34:48.762Z,0.06
2022-12-13T16:37:26.211Z,0.26
2022-12-13T16:39:56.386Z,-0.15
2022-12-13T16:42:26.056Z,0.10
2022-12-13T16:45:40.443Z,0.21
2022-12-13T16:47:49.136Z,-0.04
2022-12-13T16:50:19.488Z,0.34
2022-12-13T16:52:47.643Z,0.34
2022-12-13T16:55:16.013Z,0.30
2022-12-13T16:57:43.635Z,-0.17
2022-12-13T17:00:12.701Z,0.35
2022-12-13T17:02:41.027Z,-0.20
2022-12-13T17:05:08.818Z,0.25
2022-12-13T17:07:36.708Z,0.15
2022-12-13T17:10:05.159Z,0.05
2022-12-13T17:12:32.850Z,0.16
2022-12-13T17:15:00.213Z,-0.22
2022-12-13T17:17:27.804Z,-0.01
2022-12-13T17:19:55.307Z,0.01
2022-12-13T17:22:22.775Z,-0.27
2022-12-13T17:24:50.287Z,-0.03
2022-12-13T17:27:18.746Z,-0.13
2022-12-13T17:29:48.117Z,-0.15
2022-12-13T17:32:15.367Z,-0.22
2022-12-13T17:34:43.545Z,-0.02
2022-12-13T17:37:11.146Z,-0.02
2022-12-13T17:39:38.548Z,-0.01
2022-12-13T17:42:06.586Z,0.01
2022-12-13T17:44:34.848Z,-0.05
2022-12-13T17:47:02.236Z,-0.37
2022-12-13T17:49:30.294Z,-0.07
2022-12-13T17:51:58.382Z,-0.70
2022-12-13T17:54:26.350Z,-0.07
2022-12-13T17:56:54.814Z,0.05
2022-12-13T17:59:23.401Z,0.10
2022-12-13T18:01:51.867Z,-0.61
2022-12-13T18:04:20.877Z,0.04
2022-12-13T18:06:48.517Z,-0.09
2022-12-13T18:09:16.131Z,-0.03
2022-12-13T18:11:43.811Z,0.27
2022-12-13T18:14:11.643Z,0.42
2022-12-13T18:16:40.202Z,0.33
2022-12-13T18:19:11.317Z,0.19
2022-12-13T18:21:39.525Z,0.08
2022-12-13T18:24:07.885Z,-0.03
2022-12-13T18:26:36.398Z,-0.02
2022-12-13T18:29:05.457Z,-0.10
2022-12-13T18:31:32.983Z,-0.51
2022-12-13T18:34:01.223Z,-0.54
2022-12-13T18:36:29.309Z,-0.32
2022-12-13T18:38:56.946Z,-0.35
2022-12-13T18:41:28.652Z,-0.36
2022-12-13T18:43:59.220Z,-0.43
2022-12-13T18:46:31.734Z,-0.49
2022-12-13T18:49:00.004Z,-0.49
2022-12-13T18:51:28.434Z,-1.31
2022-12-13T18:53:56.882Z,-0.71
2022-12-13T18:56:26.004Z,-0.90
2022-12-13T18:58:53.901Z,-0.64
2022-12-13T19:01:23.195Z,-1.01
2022-12-13T19:03:51.382Z,-0.80
2022-12-13T19:06:25.014Z,-0.62
2022-12-13T19:08:56.479Z,-0.70
2022-12-13T19:11:26.942Z,-0.55
2022-12-13T19:13:54.489Z,-1.41
2022-12-13T19:16:23.455Z,-0.81
2022-12-13T19:18:51.403Z,-0.70
2022-12-13T19:21:21.272Z,-0.86
2022-12-13T19:23:56.430Z,-1.08
2022-12-13T19:26:25.990Z,-0.98
2022-12-13T19:28:53.456Z,-0.80
2022-12-13T19:31:24.304Z,-0.87
2022-12-13T19:33:57.328Z,-0.98
2022-12-13T19:36:24.991Z,-1.86
2022-12-13T19:38:55.500Z,-1.14
2022-12-13T19:41:23.402Z,-1.17
2022-12-13T19:43:53.038Z,-1.60
2022-12-13T19:46:21.556Z,-1.28
2022-12-13T19:48:49.875Z,-1.78
2022-12-13T19:51:18.008Z,-1.45
2022-12-13T19:53:45.566Z,-1.75
2022-12-13T19:56:15.713Z,-1.36
2022-12-13T19:58:44.679Z,-1.41
2022-12-13T20:01:12.966Z,-1.57
2022-12-13T20:03:43.109Z,-1.51
2022-12-13T20:06:13.588Z,-1.51
2022-12-13T20:08:41.233Z,-1.90
2022-12-13T20:11:13.502Z,-1.74
2022-12-13T20:13:41.863Z,-2.22
2022-12-13T20:16:16.163Z,-1.81
2022-12-13T20:18:44.187Z,-1.92
2022-12-13T20:21:14.826Z,-1.84
2022-12-13T20:23:48.719Z,-1.86
2022-12-13T20:26:23.380Z,-1.86
2022-12-13T20:28:51.496Z,-1.87
2022-12-13T20:31:23.217Z,-1.99
2022-12-13T20:33:58.426Z,-2.49
2022-12-13T20:36:28.821Z,-2.19
2022-12-13T20:38:58.287Z,-2.68
2022-12-13T20:41:27.925Z,-2.33
2022-12-13T20:43:58.285Z,-2.40
2022-12-13T20:46:27.020Z,-2.42
2022-12-13T20:48:56.548Z,-2.43
2022-12-13T20:51:26.383Z,-2.93
2022-12-13T20:53:54.884Z,-2.43
2022-12-13T20:56:26.947Z,-2.52
2022-12-13T20:58:56.409Z,-2.47
2022-12-13T21:01:32.407Z,-2.55
2022-12-13T21:04:02.074Z,-3.14
2022-12-13T21:06:30.743Z,-2.95
2022-12-13T21:09:03.256Z,-2.67
2022-12-13T21:11:33.479Z,-2.76
2022-12-13T21:14:10.104Z,-2.74
2022-12-13T21:17:00.602Z,-2.74
2022-12-13T21:19:33.053Z,-2.75
2022-12-13T21:22:03.950Z,-2.73
2022-12-13T21:24:31.655Z,-3.01
2022-12-13T21:27:00.087Z,-3.43
2022-12-13T21:29:27.455Z,-2.91
2022-12-13T21:31:55.369Z,-2.87
2022-12-13T21:34:23.538Z,-3.70
2022-12-13T21:36:52.640Z,-2.97
2022-12-13T21:39:29.883Z,-2.91
2022-12-13T21:41:58.307Z,-3.60
2022-12-13T21:44:26.244Z,-3.00
2022-12-13T21:49:41.846Z,-3.50
2022-12-13T21:52:09.623Z,-3.32
2022-12-13T21:54:36.931Z,-3.23
2022-12-13T21:57:23.541Z,-3.20
2022-12-13T21:59:50.990Z,-3.34
2022-12-13T22:02:19.235Z,-3.39
2022-12-13T22:04:52.454Z,-3.47
2022-12-13T22:07:21.306Z,-3.50
2022-12-13T22:09:49.536Z,-3.57
2022-12-13T22:12:21.789Z,-3.93
2022-12-13T22:14:49.899Z,-3.37
2022-12-13T22:17:18.046Z,-3.41
2022-12-13T22:19:48.558Z,-3.84
2022-12-13T22:22:18.443Z,-3.46
2022-12-13T22:24:52.990Z,-3.57
2022-12-13T22:27:24.618Z,-3.70
2022-12-13T22:29:53.610Z,-3.61
2022-12-13T22:32:22.654Z,-3.69
2022-12-13T22:34:50.629Z,-3.88
2022-12-13T22:37:17.978Z,-3.63
2022-12-13T22:39:45.507Z,-3.87
2022-12-13T22:42:13.353Z,-3.71
2022-12-13T22:44:41.071Z,-3.92
2022-12-13T22:47:08.426Z,-4.13
2022-12-13T22:49:37.743Z,-4.04
2022-12-13T22:52:05.590Z,-3.68
2022-12-13T22:54:32.952Z,-3.71
2022-12-13T22:57:00.767Z,-3.66
2022-12-13T22:59:28.546Z,-3.58
2022-12-13T23:02:02.001Z,-3.66
2022-12-13T23:04:33.250Z,-4.22
2022-12-13T23:07:01.134Z,-3.78
2022-12-13T23:09:28.368Z,-4.08
2022-12-13T23:12:14.938Z,-4.51
2022-12-13T23:14:42.608Z,-3.81
2022-12-13T23:17:10.388Z,-4.13
2022-12-13T23:19:48.790Z,-3.72
2022-12-13T23:22:17.058Z,-4.65
2022-12-13T23:24:44.584Z,-3.90
2022-12-13T23:27:11.886Z,-4.06
2022-12-13T23:29:39.551Z,-4.35
2022-12-13T23:32:07.358Z,-4.16
2022-12-13T23:34:35.031Z,-4.60
2022-12-13T23:37:02.204Z,-4.17
2022-12-13T23:39:29.618Z,-4.90
2022-12-13T23:41:57.412Z,-4.37
2022-12-13T23:44:25.029Z,-4.35
2022-12-13T23:46:52.957Z,-4.32
2022-12-13T23:49:20.532Z,-4.20
2022-12-13T23:51:47.877Z,-4.60
2022-12-13T23:54:19.586Z,-4.18
2022-12-13T23:56:47.935Z,-4.32
2022-12-13T23:59:16.878Z,-4.75
